sensor_id;sensor_type;location;lat;lon;timestamp;P1;durP1;ratioP1;P2;durP2;ratioP2
56477;SDS011;42382;53.210;5.772;2023-05-17T00:02:00;24.63;;;2.58;;
56477;SDS011;42382;53.210;5.772;2023-05-17T00:04:26;26.33;;;2.47;;
56477;SDS011;42382;53.210;5.772;2023-05-17T00:06:52;23.42;;;2.83;;
56477;SDS011;42382;53.210;5.772;2023-05-17T00:09:17;23.75;;;3.20;;
56477;SDS011;42382;53.210;5.772;2023-05-17T00:11:43;17.35;;;2.33;;
56477;SDS011;42382;53.210;5.772;2023-05-17T00:14:09;24.10;;;3.42;;
56477;SDS011;42382;53.210;5.772;2023-05-17T00:16:35;19.35;;;2.22;;
56477;SDS011;42382;53.210;5.772;2023-05-17T00:19:01;22.38;;;2.38;;
56477;SDS011;42382;53.210;5.772;2023-05-17T00:21:27;16.63;;;2.83;;
56477;SDS011;42382;53.210;5.772;2023-05-17T07:08:59;10.50;;;1.55;;
56477;SDS011;42382;53.210;5.772;2023-05-17T07:13:50;15.48;;;1.67;;
56477;SDS011;42382;53.210;5.772;2023-05-17T07:16:16;16.98;;;1.98;;
56477;SDS011;42382;53.210;5.772;2023-05-17T07:18:41;16.58;;;2.47;;
56477;SDS011;42382;53.210;5.772;2023-05-17T07:21:07;12.93;;;1.58;;
56477;SDS011;42382;53.210;5.772;2023-05-17T07:23:32;11.57;;;1.50;;
56477;SDS011;42382;53.210;5.772;2023-05-17T07:25:58;12.65;;;1.30;;
56477;SDS011;42382;53.210;5.772;2023-05-17T07:28:24;14.65;;;1.48;;
56477;SDS011;42382;53.210;5.772;2023-05-17T07:30:49;9.82;;;1.15;;
56477;SDS011;42382;53.210;5.772;2023-05-17T07:33:15;12.25;;;1.55;;
56477;SDS011;42382;53.210;5.772;2023-05-17T07:35:40;15.13;;;2.05;;
56477;SDS011;42382;53.210;5.772;2023-05-17T07:38:06;15.40;;;1.75;;
56477;SDS011;42382;53.210;5.772;2023-05-17T07:40:31;9.77;;;1.17;;
56477;SDS011;42382;53.210;5.772;2023-05-17T07:42:57;11.63;;;1.40;;
56477;SDS011;42382;53.210;5.772;2023-05-17T07:45:23;13.23;;;1.48;;
56477;SDS011;42382;53.210;5.772;2023-05-17T07:47:48;12.77;;;1.48;;
56477;SDS011;42382;53.210;5.772;2023-05-17T07:50:14;13.00;;;1.88;;
56477;SDS011;42382;53.210;5.772;2023-05-17T07:52:40;9.25;;;0.95;;
56477;SDS011;42382;53.210;5.772;2023-05-17T07:55:05;10.27;;;1.33;;
56477;SDS011;42382;53.210;5.772;2023-05-17T07:57:31;14.40;;;1.17;;
56477;SDS011;42382;53.210;5.772;2023-05-17T07:59:57;15.02;;;1.48;;
56477;SDS011;42382;53.210;5.772;2023-05-17T08:02:22;11.50;;;1.55;;
56477;SDS011;42382;53.210;5.772;2023-05-17T08:04:48;15.82;;;2.20;;
56477;SDS011;42382;53.210;5.772;2023-05-17T08:07:14;12.13;;;1.60;;
56477;SDS011;42382;53.210;5.772;2023-05-17T08:09:39;12.23;;;1.98;;
56477;SDS011;42382;53.210;5.772;2023-05-17T08:12:08;12.05;;;1.63;;
56477;SDS011;42382;53.210;5.772;2023-05-17T08:14:33;13.65;;;1.83;;
56477;SDS011;42382;53.210;5.772;2023-05-17T08:16:59;11.90;;;1.48;;
56477;SDS011;42382;53.210;5.772;2023-05-17T08:19:25;15.77;;;1.92;;
56477;SDS011;42382;53.210;5.772;2023-05-17T08:21:50;11.57;;;1.73;;
56477;SDS011;42382;53.210;5.772;2023-05-17T08:24:16;16.85;;;2.75;;
56477;SDS011;42382;53.210;5.772;2023-05-17T08:26:41;15.57;;;1.48;;
56477;SDS011;42382;53.210;5.772;2023-05-17T08:29:07;15.93;;;2.10;;
56477;SDS011;42382;53.210;5.772;2023-05-17T08:31:33;17.25;;;2.35;;
56477;SDS011;42382;53.210;5.772;2023-05-17T08:33:58;14.32;;;1.67;;
56477;SDS011;42382;53.210;5.772;2023-05-17T08:36:24;11.30;;;1.67;;
56477;SDS011;42382;53.210;5.772;2023-05-17T08:38:50;15.40;;;1.55;;
56477;SDS011;42382;53.210;5.772;2023-05-17T08:41:16;10.13;;;1.50;;
56477;SDS011;42382;53.210;5.772;2023-05-17T08:43:42;12.93;;;1.48;;
56477;SDS011;42382;53.210;5.772;2023-05-17T08:46:08;17.13;;;1.58;;
56477;SDS011;42382;53.210;5.772;2023-05-17T08:48:34;8.70;;;1.15;;
56477;SDS011;42382;53.210;5.772;2023-05-17T08:51:05;11.13;;;1.42;;
56477;SDS011;42382;53.210;5.772;2023-05-17T08:53:32;8.20;;;1.00;;
56477;SDS011;42382;53.210;5.772;2023-05-17T08:55:59;15.73;;;1.52;;
56477;SDS011;42382;53.210;5.772;2023-05-17T08:58:26;10.02;;;2.15;;
56477;SDS011;42382;53.210;5.772;2023-05-17T09:00:54;10.77;;;1.40;;
56477;SDS011;42382;53.210;5.772;2023-05-17T09:03:21;10.65;;;1.45;;
56477;SDS011;42382;53.210;5.772;2023-05-17T09:05:51;8.52;;;1.30;;
56477;SDS011;42382;53.210;5.772;2023-05-17T09:08:18;9.18;;;1.02;;
56477;SDS011;42382;53.210;5.772;2023-05-17T09:10:45;8.05;;;1.40;;
56477;SDS011;42382;53.210;5.772;2023-05-17T09:13:11;10.63;;;1.42;;
56477;SDS011;42382;53.210;5.772;2023-05-17T09:15:37;12.57;;;1.77;;
56477;SDS011;42382;53.210;5.772;2023-05-17T09:18:05;12.77;;;2.10;;
56477;SDS011;42382;53.210;5.772;2023-05-17T09:20:37;13.70;;;1.40;;
56477;SDS011;42382;53.210;5.772;2023-05-17T09:23:07;11.52;;;1.27;;
56477;SDS011;42382;53.210;5.772;2023-05-17T09:25:46;8.32;;;1.02;;
56477;SDS011;42382;53.210;5.772;2023-05-17T09:28:13;9.40;;;0.80;;
56477;SDS011;42382;53.210;5.772;2023-05-17T09:30:38;7.68;;;0.70;;
56477;SDS011;42382;53.210;5.772;2023-05-17T09:33:06;7.90;;;1.05;;
56477;SDS011;42382;53.210;5.772;2023-05-17T09:35:33;7.70;;;1.08;;
56477;SDS011;42382;53.210;5.772;2023-05-17T09:38:06;13.73;;;1.35;;
56477;SDS011;42382;53.210;5.772;2023-05-17T09:40:31;9.40;;;1.05;;
56477;SDS011;42382;53.210;5.772;2023-05-17T09:42:57;10.80;;;0.90;;
56477;SDS011;42382;53.210;5.772;2023-05-17T09:45:24;6.07;;;0.88;;
56477;SDS011;42382;53.210;5.772;2023-05-17T09:47:50;13.90;;;1.45;;
56477;SDS011;42382;53.210;5.772;2023-05-17T09:50:17;4.85;;;0.57;;
56477;SDS011;42382;53.210;5.772;2023-05-17T09:52:43;6.65;;;0.88;;
56477;SDS011;42382;53.210;5.772;2023-05-17T09:55:10;7.45;;;0.98;;
56477;SDS011;42382;53.210;5.772;2023-05-17T09:57:37;8.48;;;1.77;;
56477;SDS011;42382;53.210;5.772;2023-05-17T10:00:04;11.10;;;1.30;;
56477;SDS011;42382;53.210;5.772;2023-05-17T10:05:05;7.45;;;0.60;;
56477;SDS011;42382;53.210;5.772;2023-05-17T10:07:36;9.88;;;0.95;;
56477;SDS011;42382;53.210;5.772;2023-05-17T10:10:03;9.82;;;1.13;;
56477;SDS011;42382;53.210;5.772;2023-05-17T10:12:32;12.90;;;1.23;;
56477;SDS011;42382;53.210;5.772;2023-05-17T10:14:59;13.23;;;1.30;;
56477;SDS011;42382;53.210;5.772;2023-05-17T10:17:26;11.00;;;1.50;;
56477;SDS011;42382;53.210;5.772;2023-05-17T10:19:53;9.25;;;1.10;;
56477;SDS011;42382;53.210;5.772;2023-05-17T10:22:20;9.68;;;1.05;;
56477;SDS011;42382;53.210;5.772;2023-05-17T10:24:46;6.20;;;0.70;;
56477;SDS011;42382;53.210;5.772;2023-05-17T10:41:53;13.05;;;1.80;;
56477;SDS011;42382;53.210;5.772;2023-05-17T12:33:34;6.10;;;1.00;;
56477;SDS011;42382;53.210;5.772;2023-05-17T12:36:03;10.23;;;1.50;;
56477;SDS011;42382;53.210;5.772;2023-05-17T12:38:32;9.05;;;1.20;;
56477;SDS011;42382;53.210;5.772;2023-05-17T12:41:00;4.30;;;0.63;;
56477;SDS011;42382;53.210;5.772;2023-05-17T12:43:27;5.45;;;0.70;;
56477;SDS011;42382;53.210;5.772;2023-05-17T12:46:04;11.98;;;1.00;;
56477;SDS011;42382;53.210;5.772;2023-05-17T12:48:31;9.30;;;1.10;;
56477;SDS011;42382;53.210;5.772;2023-05-17T12:51:13;5.57;;;0.73;;
56477;SDS011;42382;53.210;5.772;2023-05-17T12:53:41;6.15;;;0.43;;
56477;SDS011;42382;53.210;5.772;2023-05-17T12:56:21;9.30;;;0.82;;
56477;SDS011;42382;53.210;5.772;2023-05-17T12:59:14;6.50;;;1.20;;
56477;SDS011;42382;53.210;5.772;2023-05-17T13:01:46;13.88;;;1.50;;
56477;SDS011;42382;53.210;5.772;2023-05-17T13:04:14;9.90;;;0.88;;
56477;SDS011;42382;53.210;5.772;2023-05-17T13:06:53;6.68;;;0.82;;
56477;SDS011;42382;53.210;5.772;2023-05-17T13:09:21;6.65;;;0.98;;
56477;SDS011;42382;53.210;5.772;2023-05-17T13:11:51;7.13;;;0.75;;
56477;SDS011;42382;53.210;5.772;2023-05-17T13:17:08;4.63;;;0.93;;
56477;SDS011;42382;53.210;5.772;2023-05-17T13:19:35;10.10;;;2.65;;
56477;SDS011;42382;53.210;5.772;2023-05-17T13:22:02;5.38;;;0.93;;
56477;SDS011;42382;53.210;5.772;2023-05-17T13:24:29;7.38;;;0.88;;
56477;SDS011;42382;53.210;5.772;2023-05-17T13:26:57;6.45;;;2.55;;
56477;SDS011;42382;53.210;5.772;2023-05-17T13:29:23;5.68;;;0.80;;
56477;SDS011;42382;53.210;5.772;2023-05-17T13:31:50;3.40;;;0.68;;
56477;SDS011;42382;53.210;5.772;2023-05-17T13:34:16;8.15;;;0.70;;
56477;SDS011;42382;53.210;5.772;2023-05-17T13:36:44;9.45;;;0.73;;
56477;SDS011;42382;53.210;5.772;2023-05-17T13:39:10;7.65;;;1.10;;
56477;SDS011;42382;53.210;5.772;2023-05-17T13:41:36;11.65;;;1.23;;
56477;SDS011;42382;53.210;5.772;2023-05-17T13:44:02;6.90;;;0.63;;
56477;SDS011;42382;53.210;5.772;2023-05-17T13:46:29;7.88;;;0.80;;
56477;SDS011;42382;53.210;5.772;2023-05-17T13:48:54;8.30;;;0.90;;
56477;SDS011;42382;53.210;5.772;2023-05-17T13:51:20;3.05;;;0.40;;
56477;SDS011;42382;53.210;5.772;2023-05-17T13:53:46;5.80;;;0.52;;
56477;SDS011;42382;53.210;5.772;2023-05-17T13:56:12;6.28;;;0.90;;
56477;SDS011;42382;53.210;5.772;2023-05-17T13:58:38;6.43;;;0.63;;
56477;SDS011;42382;53.210;5.772;2023-05-17T14:01:07;6.50;;;0.70;;
56477;SDS011;42382;53.210;5.772;2023-05-17T14:03:32;5.68;;;0.70;;
56477;SDS011;42382;53.210;5.772;2023-05-17T14:05:59;5.82;;;0.70;;
56477;SDS011;42382;53.210;5.772;2023-05-17T14:08:24;6.15;;;0.50;;
56477;SDS011;42382;53.210;5.772;2023-05-17T14:10:50;5.40;;;0.80;;
56477;SDS011;42382;53.210;5.772;2023-05-17T14:13:16;4.13;;;0.50;;
56477;SDS011;42382;53.210;5.772;2023-05-17T14:15:41;6.10;;;0.80;;
56477;SDS011;42382;53.210;5.772;2023-05-17T14:18:08;10.38;;;0.93;;
56477;SDS011;42382;53.210;5.772;2023-05-17T14:20:33;5.53;;;0.52;;
56477;SDS011;42382;53.210;5.772;2023-05-17T14:22:59;7.80;;;0.55;;
56477;SDS011;42382;53.210;5.772;2023-05-17T14:25:25;7.05;;;0.82;;
56477;SDS011;42382;53.210;5.772;2023-05-17T14:27:51;10.45;;;1.10;;
56477;SDS011;42382;53.210;5.772;2023-05-17T14:30:17;7.40;;;1.05;;
56477;SDS011;42382;53.210;5.772;2023-05-17T14:32:44;8.10;;;1.13;;
56477;SDS011;42382;53.210;5.772;2023-05-17T14:35:10;12.15;;;1.10;;
56477;SDS011;42382;53.210;5.772;2023-05-17T14:37:35;9.77;;;2.13;;
56477;SDS011;42382;53.210;5.772;2023-05-17T14:40:01;5.35;;;0.77;;
56477;SDS011;42382;53.210;5.772;2023-05-17T14:42:27;7.47;;;1.00;;
56477;SDS011;42382;53.210;5.772;2023-05-17T14:44:54;8.25;;;0.98;;
56477;SDS011;42382;53.210;5.772;2023-05-17T14:47:20;7.82;;;0.70;;
56477;SDS011;42382;53.210;5.772;2023-05-17T14:49:46;10.77;;;1.15;;
56477;SDS011;42382;53.210;5.772;2023-05-17T14:52:11;9.43;;;0.90;;
56477;SDS011;42382;53.210;5.772;2023-05-17T14:54:37;9.27;;;1.40;;
56477;SDS011;42382;53.210;5.772;2023-05-17T14:57:04;5.35;;;0.70;;
56477;SDS011;42382;53.210;5.772;2023-05-17T14:59:30;4.55;;;0.80;;
56477;SDS011;42382;53.210;5.772;2023-05-17T15:01:56;7.10;;;1.10;;
56477;SDS011;42382;53.210;5.772;2023-05-17T15:04:22;7.50;;;0.80;;
56477;SDS011;42382;53.210;5.772;2023-05-17T15:06:47;5.40;;;1.20;;
56477;SDS011;42382;53.210;5.772;2023-05-17T15:09:15;6.55;;;0.60;;
56477;SDS011;42382;53.210;5.772;2023-05-17T15:11:42;8.82;;;0.70;;
56477;SDS011;42382;53.210;5.772;2023-05-17T15:14:09;8.95;;;1.15;;
56477;SDS011;42382;53.210;5.772;2023-05-17T15:16:38;4.32;;;0.65;;
56477;SDS011;42382;53.210;5.772;2023-05-17T15:19:04;6.50;;;0.88;;
56477;SDS011;42382;53.210;5.772;2023-05-17T15:21:29;10.88;;;1.05;;
56477;SDS011;42382;53.210;5.772;2023-05-17T15:23:56;7.72;;;0.85;;
56477;SDS011;42382;53.210;5.772;2023-05-17T15:26:21;7.05;;;2.08;;
56477;SDS011;42382;53.210;5.772;2023-05-17T15:28:47;6.30;;;0.60;;
56477;SDS011;42382;53.210;5.772;2023-05-17T15:31:15;6.65;;;0.50;;
56477;SDS011;42382;53.210;5.772;2023-05-17T15:33:40;4.00;;;0.43;;
56477;SDS011;42382;53.210;5.772;2023-05-17T15:36:07;7.10;;;0.60;;
56477;SDS011;42382;53.210;5.772;2023-05-17T15:38:34;7.00;;;0.50;;
56477;SDS011;42382;53.210;5.772;2023-05-17T15:50:46;8.00;;;0.50;;
56477;SDS011;42382;53.210;5.772;2023-05-17T15:53:12;7.82;;;0.82;;
56477;SDS011;42382;53.210;5.772;2023-05-17T15:55:38;3.50;;;0.93;;
56477;SDS011;42382;53.210;5.772;2023-05-17T15:58:04;5.13;;;0.47;;
56477;SDS011;42382;53.210;5.772;2023-05-17T16:00:32;4.72;;;0.50;;
56477;SDS011;42382;53.210;5.772;2023-05-17T16:02:58;6.47;;;1.25;;
56477;SDS011;42382;53.210;5.772;2023-05-17T16:05:24;3.97;;;0.55;;
56477;SDS011;42382;53.210;5.772;2023-05-17T16:07:50;6.22;;;0.60;;
56477;SDS011;42382;53.210;5.772;2023-05-17T16:10:16;8.23;;;0.90;;
56477;SDS011;42382;53.210;5.772;2023-05-17T16:12:42;5.00;;;0.63;;
56477;SDS011;42382;53.210;5.772;2023-05-17T16:15:07;5.05;;;0.47;;
56477;SDS011;42382;53.210;5.772;2023-05-17T16:17:33;6.43;;;0.80;;
56477;SDS011;42382;53.210;5.772;2023-05-17T16:19:59;8.80;;;0.85;;
56477;SDS011;42382;53.210;5.772;2023-05-17T16:22:25;4.13;;;0.50;;
56477;SDS011;42382;53.210;5.772;2023-05-17T16:24:51;4.00;;;0.85;;
56477;SDS011;42382;53.210;5.772;2023-05-17T16:27:21;6.57;;;0.70;;
56477;SDS011;42382;53.210;5.772;2023-05-17T16:29:46;12.98;;;3.97;;
56477;SDS011;42382;53.210;5.772;2023-05-17T16:32:12;5.28;;;0.77;;
56477;SDS011;42382;53.210;5.772;2023-05-17T16:34:37;3.72;;;0.70;;
56477;SDS011;42382;53.210;5.772;2023-05-17T16:49:11;8.77;;;0.80;;
56477;SDS011;42382;53.210;5.772;2023-05-17T16:51:36;4.40;;;0.63;;
56477;SDS011;42382;53.210;5.772;2023-05-17T16:54:02;6.38;;;0.60;;
56477;SDS011;42382;53.210;5.772;2023-05-17T16:56:28;6.93;;;0.85;;
56477;SDS011;42382;53.210;5.772;2023-05-17T16:58:53;10.45;;;0.82;;
56477;SDS011;42382;53.210;5.772;2023-05-17T17:01:19;7.15;;;0.60;;
56477;SDS011;42382;53.210;5.772;2023-05-17T17:03:45;7.10;;;0.55;;
56477;SDS011;42382;53.210;5.772;2023-05-17T17:06:11;5.40;;;0.70;;
56477;SDS011;42382;53.210;5.772;2023-05-17T17:45:00;10.75;;;1.27;;
56477;SDS011;42382;53.210;5.772;2023-05-17T17:47:26;5.22;;;0.68;;
56477;SDS011;42382;53.210;5.772;2023-05-17T17:49:51;7.85;;;1.33;;
56477;SDS011;42382;53.210;5.772;2023-05-17T17:52:17;5.32;;;0.73;;
56477;SDS011;42382;53.210;5.772;2023-05-17T17:54:43;8.77;;;0.80;;
56477;SDS011;42382;53.210;5.772;2023-05-17T17:57:08;3.70;;;0.40;;
56477;SDS011;42382;53.210;5.772;2023-05-17T17:59:34;11.82;;;1.13;;
56477;SDS011;42382;53.210;5.772;2023-05-17T18:02:00;9.13;;;1.15;;
56477;SDS011;42382;53.210;5.772;2023-05-17T18:04:25;7.93;;;1.30;;
56477;SDS011;42382;53.210;5.772;2023-05-17T18:06:51;7.85;;;1.00;;
56477;SDS011;42382;53.210;5.772;2023-05-17T18:09:17;12.05;;;1.70;;
56477;SDS011;42382;53.210;5.772;2023-05-17T18:11:43;10.07;;;2.03;;
56477;SDS011;42382;53.210;5.772;2023-05-17T18:14:08;7.70;;;1.45;;
56477;SDS011;42382;53.210;5.772;2023-05-17T18:16:34;8.00;;;1.30;;
56477;SDS011;42382;53.210;5.772;2023-05-17T18:19:00;6.78;;;1.10;;
56477;SDS011;42382;53.210;5.772;2023-05-17T18:21:25;12.82;;;2.28;;
56477;SDS011;42382;53.210;5.772;2023-05-17T18:23:53;9.68;;;1.15;;
56477;SDS011;42382;53.210;5.772;2023-05-17T18:26:18;10.82;;;2.00;;
56477;SDS011;42382;53.210;5.772;2023-05-17T18:28:45;7.47;;;1.05;;
56477;SDS011;42382;53.210;5.772;2023-05-17T18:31:11;6.45;;;0.90;;
56477;SDS011;42382;53.210;5.772;2023-05-17T18:40:55;12.15;;;0.95;;
56477;SDS011;42382;53.210;5.772;2023-05-17T18:43:21;3.72;;;0.73;;
56477;SDS011;42382;53.210;5.772;2023-05-17T18:45:47;4.88;;;0.80;;
56477;SDS011;42382;53.210;5.772;2023-05-17T18:48:12;7.63;;;0.73;;
56477;SDS011;42382;53.210;5.772;2023-05-17T19:39:14;8.77;;;1.23;;
56477;SDS011;42382;53.210;5.772;2023-05-17T19:41:42;9.38;;;1.27;;
56477;SDS011;42382;53.210;5.772;2023-05-17T19:44:08;8.00;;;0.77;;
56477;SDS011;42382;53.210;5.772;2023-05-17T19:46:33;8.75;;;1.00;;
56477;SDS011;42382;53.210;5.772;2023-05-17T19:48:59;6.90;;;1.05;;
56477;SDS011;42382;53.210;5.772;2023-05-17T19:51:25;5.95;;;0.52;;
56477;SDS011;42382;53.210;5.772;2023-05-17T19:53:50;6.93;;;0.75;;
56477;SDS011;42382;53.210;5.772;2023-05-17T19:56:16;7.43;;;1.63;;
56477;SDS011;42382;53.210;5.772;2023-05-17T19:58:41;8.30;;;0.80;;
56477;SDS011;42382;53.210;5.772;2023-05-17T20:01:07;9.80;;;1.02;;
56477;SDS011;42382;53.210;5.772;2023-05-17T20:03:33;9.43;;;2.78;;
56477;SDS011;42382;53.210;5.772;2023-05-17T20:05:58;8.02;;;2.42;;
56477;SDS011;42382;53.210;5.772;2023-05-17T20:08:24;7.53;;;1.08;;
56477;SDS011;42382;53.210;5.772;2023-05-17T20:10:50;7.38;;;0.93;;
56477;SDS011;42382;53.210;5.772;2023-05-17T20:13:16;9.98;;;1.23;;
56477;SDS011;42382;53.210;5.772;2023-05-17T20:15:46;7.13;;;1.23;;
56477;SDS011;42382;53.210;5.772;2023-05-17T20:18:12;4.97;;;0.80;;
56477;SDS011;42382;53.210;5.772;2023-05-17T20:20:39;7.78;;;1.23;;
56477;SDS011;42382;53.210;5.772;2023-05-17T20:23:04;7.45;;;1.13;;
56477;SDS011;42382;53.210;5.772;2023-05-17T21:31:16;9.20;;;1.00;;
56477;SDS011;42382;53.210;5.772;2023-05-17T21:33:42;7.78;;;0.95;;
56477;SDS011;42382;53.210;5.772;2023-05-17T21:36:08;5.97;;;0.82;;
56477;SDS011;42382;53.210;5.772;2023-05-17T21:38:34;15.45;;;2.03;;
56477;SDS011;42382;53.210;5.772;2023-05-17T21:41:00;8.38;;;1.33;;
56477;SDS011;42382;53.210;5.772;2023-05-17T21:43:25;5.15;;;1.10;;
56477;SDS011;42382;53.210;5.772;2023-05-17T21:45:51;8.52;;;1.23;;
56477;SDS011;42382;53.210;5.772;2023-05-17T21:48:17;8.52;;;0.82;;
56477;SDS011;42382;53.210;5.772;2023-05-17T21:50:42;8.85;;;1.40;;
56477;SDS011;42382;53.210;5.772;2023-05-17T21:53:08;6.82;;;1.13;;
56477;SDS011;42382;53.210;5.772;2023-05-17T21:55:36;9.07;;;1.33;;
56477;SDS011;42382;53.210;5.772;2023-05-17T21:58:03;5.75;;;1.02;;
56477;SDS011;42382;53.210;5.772;2023-05-17T22:00:29;9.25;;;1.00;;
56477;SDS011;42382;53.210;5.772;2023-05-17T22:02:54;6.32;;;1.10;;
56477;SDS011;42382;53.210;5.772;2023-05-17T22:05:20;7.18;;;1.10;;
56477;SDS011;42382;53.210;5.772;2023-05-17T22:07:46;8.73;;;1.42;;
56477;SDS011;42382;53.210;5.772;2023-05-17T22:10:11;8.18;;;1.35;;
56477;SDS011;42382;53.210;5.772;2023-05-17T22:12:37;8.80;;;1.15;;
56477;SDS011;42382;53.210;5.772;2023-05-17T22:15:02;6.65;;;1.05;;
56477;SDS011;42382;53.210;5.772;2023-05-17T22:17:28;8.68;;;1.20;;
56477;SDS011;42382;53.210;5.772;2023-05-17T22:19:58;6.18;;;0.90;;
56477;SDS011;42382;53.210;5.772;2023-05-17T22:22:25;6.43;;;0.70;;
56477;SDS011;42382;53.210;5.772;2023-05-17T22:24:51;6.95;;;1.02;;
56477;SDS011;42382;53.210;5.772;2023-05-17T22:27:20;6.63;;;1.48;;
56477;SDS011;42382;53.210;5.772;2023-05-17T22:29:46;6.30;;;0.80;;
56477;SDS011;42382;53.210;5.772;2023-05-17T22:32:12;9.20;;;1.13;;
56477;SDS011;42382;53.210;5.772;2023-05-17T22:34:38;10.32;;;0.85;;
56477;SDS011;42382;53.210;5.772;2023-05-17T22:37:08;5.40;;;1.27;;
56477;SDS011;42382;53.210;5.772;2023-05-17T22:39:35;4.53;;;0.90;;
56477;SDS011;42382;53.210;5.772;2023-05-17T22:42:02;3.42;;;1.30;;
56477;SDS011;42382;53.210;5.772;2023-05-17T22:44:29;7.35;;;1.77;;
56477;SDS011;42382;53.210;5.772;2023-05-17T22:46:55;6.63;;;1.38;;
56477;SDS011;42382;53.210;5.772;2023-05-17T22:49:22;6.90;;;1.00;;
56477;SDS011;42382;53.210;5.772;2023-05-17T22:51:48;7.72;;;1.15;;
56477;SDS011;42382;53.210;5.772;2023-05-17T22:54:13;6.10;;;1.05;;
56477;SDS011;42382;53.210;5.772;2023-05-17T22:56:39;7.90;;;1.65;;
56477;SDS011;42382;53.210;5.772;2023-05-17T22:59:05;6.88;;;0.98;;
56477;SDS011;42382;53.210;5.772;2023-05-17T23:01:30;8.98;;;1.73;;
56477;SDS011;42382;53.210;5.772;2023-05-17T23:03:56;4.93;;;0.82;;
56477;SDS011;42382;53.210;5.772;2023-05-17T23:06:21;8.18;;;1.10;;
56477;SDS011;42382;53.210;5.772;2023-05-17T23:08:48;6.85;;;0.95;;
56477;SDS011;42382;53.210;5.772;2023-05-17T23:11:13;6.93;;;1.30;;
56477;SDS011;42382;53.210;5.772;2023-05-17T23:13:39;4.68;;;0.77;;
56477;SDS011;42382;53.210;5.772;2023-05-17T23:16:07;6.90;;;1.05;;
56477;SDS011;42382;53.210;5.772;2023-05-17T23:18:32;11.77;;;1.00;;
56477;SDS011;42382;53.210;5.772;2023-05-17T23:21:00;9.43;;;1.35;;
56477;SDS011;42382;53.210;5.772;2023-05-17T23:23:25;4.15;;;0.60;;
56477;SDS011;42382;53.210;5.772;2023-05-17T23:25:53;5.50;;;1.02;;
56477;SDS011;42382;53.210;5.772;2023-05-17T23:28:20;5.95;;;1.48;;
56477;SDS011;42382;53.210;5.772;2023-05-17T23:30:48;3.72;;;1.00;;
56477;SDS011;42382;53.210;5.772;2023-05-17T23:33:15;5.80;;;1.05;;
56477;SDS011;42382;53.210;5.772;2023-05-17T23:35:43;8.30;;;1.50;;
56477;SDS011;42382;53.210;5.772;2023-05-17T23:38:08;5.78;;;0.98;;
56477;SDS011;42382;53.210;5.772;2023-05-17T23:40:34;8.27;;;1.23;;
56477;SDS011;42382;53.210;5.772;2023-05-17T23:43:01;3.70;;;0.77;;
56477;SDS011;42382;53.210;5.772;2023-05-17T23:45:27;12.90;;;1.75;;
56477;SDS011;42382;53.210;5.772;2023-05-17T23:47:53;9.25;;;1.75;;
56477;SDS011;42382;53.210;5.772;2023-05-17T23:50:19;6.20;;;1.23;;
56477;SDS011;42382;53.210;5.772;2023-05-17T23:52:45;7.13;;;1.20;;
56477;SDS011;42382;53.210;5.772;2023-05-17T23:55:11;5.68;;;1.35;;
56477;SDS011;42382;53.210;5.772;2023-05-17T23:57:37;7.55;;;1.17;;
